sensor_id;sensor_type;location;lat;lon;timestamp;P1;durP1;ratioP1;P2;durP2;ratioP2
27039;SDS011;14589;51.578;7.306;2023-05-16T00:01:45;9.40;;;4.93;;
27039;SDS011;14589;51.578;7.306;2023-05-16T00:04:21;10.50;;;5.85;;
27039;SDS011;14589;51.578;7.306;2023-05-16T00:06:52;10.45;;;4.13;;
27039;SDS011;14589;51.578;7.306;2023-05-16T00:09:23;8.32;;;4.63;;
27039;SDS011;14589;51.578;7.306;2023-05-16T00:11:53;7.43;;;4.22;;
27039;SDS011;14589;51.578;7.306;2023-05-16T00:14:27;8.95;;;4.53;;
27039;SDS011;14589;51.578;7.306;2023-05-16T00:16:57;8.13;;;3.63;;
27039;SDS011;14589;51.578;7.306;2023-05-16T00:19:28;7.35;;;4.78;;
27039;SDS011;14589;51.578;7.306;2023-05-16T00:21:58;7.13;;;3.70;;
27039;SDS011;14589;51.578;7.306;2023-05-16T00:24:29;6.53;;;4.05;;
27039;SDS011;14589;51.578;7.306;2023-05-16T00:27:00;8.57;;;4.35;;
27039;SDS011;14589;51.578;7.306;2023-05-16T00:29:30;6.47;;;3.60;;
27039;SDS011;14589;51.578;7.306;2023-05-16T00:32:01;6.20;;;3.65;;
27039;SDS011;14589;51.578;7.306;2023-05-16T00:34:32;6.55;;;3.35;;
27039;SDS011;14589;51.578;7.306;2023-05-16T00:37:02;8.27;;;4.10;;
27039;SDS011;14589;51.578;7.306;2023-05-16T00:39:34;7.03;;;2.75;;
27039;SDS011;14589;51.578;7.306;2023-05-16T00:42:05;5.97;;;2.70;;
27039;SDS011;14589;51.578;7.306;2023-05-16T00:44:36;4.80;;;3.08;;
27039;SDS011;14589;51.578;7.306;2023-05-16T00:47:06;3.90;;;0.98;;
27039;SDS011;14589;51.578;7.306;2023-05-16T00:49:37;4.40;;;2.05;;
27039;SDS011;14589;51.578;7.306;2023-05-16T00:52:07;4.80;;;2.58;;
27039;SDS011;14589;51.578;7.306;2023-05-16T00:54:38;3.67;;;2.92;;
27039;SDS011;14589;51.578;7.306;2023-05-16T00:57:12;5.60;;;3.35;;
27039;SDS011;14589;51.578;7.306;2023-05-16T00:59:44;3.15;;;1.85;;
27039;SDS011;14589;51.578;7.306;2023-05-16T01:02:15;4.32;;;2.13;;
27039;SDS011;14589;51.578;7.306;2023-05-16T01:04:46;4.25;;;1.90;;
27039;SDS011;14589;51.578;7.306;2023-05-16T01:07:17;4.03;;;1.67;;
27039;SDS011;14589;51.578;7.306;2023-05-16T01:09:47;2.95;;;1.35;;
27039;SDS011;14589;51.578;7.306;2023-05-16T01:12:35;3.13;;;1.48;;
27039;SDS011;14589;51.578;7.306;2023-05-16T01:15:27;2.85;;;1.67;;
27039;SDS011;14589;51.578;7.306;2023-05-16T01:23:45;4.82;;;0.68;;
27039;SDS011;14589;51.578;7.306;2023-05-16T01:26:21;2.40;;;1.38;;
27039;SDS011;14589;51.578;7.306;2023-05-16T01:28:54;2.67;;;1.10;;
27039;SDS011;14589;51.578;7.306;2023-05-16T01:31:25;1.20;;;0.60;;
27039;SDS011;14589;51.578;7.306;2023-05-16T01:33:55;2.15;;;0.40;;
27039;SDS011;14589;51.578;7.306;2023-05-16T01:42:00;7.22;;;0.65;;
27039;SDS011;14589;51.578;7.306;2023-05-16T01:47:15;5.68;;;1.13;;
27039;SDS011;14589;51.578;7.306;2023-05-16T01:52:52;9.27;;;1.27;;
27039;SDS011;14589;51.578;7.306;2023-05-16T01:58:08;11.63;;;2.25;;
27039;SDS011;14589;51.578;7.306;2023-05-16T02:00:40;5.15;;;1.30;;
27039;SDS011;14589;51.578;7.306;2023-05-16T02:03:11;9.05;;;1.20;;
27039;SDS011;14589;51.578;7.306;2023-05-16T02:05:41;4.30;;;0.65;;
27039;SDS011;14589;51.578;7.306;2023-05-16T02:08:15;4.63;;;0.98;;
27039;SDS011;14589;51.578;7.306;2023-05-16T02:10:46;8.25;;;1.70;;
27039;SDS011;14589;51.578;7.306;2023-05-16T02:13:16;7.05;;;1.05;;
27039;SDS011;14589;51.578;7.306;2023-05-16T02:15:46;5.30;;;1.38;;
27039;SDS011;14589;51.578;7.306;2023-05-16T02:18:17;9.85;;;1.60;;
27039;SDS011;14589;51.578;7.306;2023-05-16T02:20:47;3.50;;;0.75;;
27039;SDS011;14589;51.578;7.306;2023-05-16T02:23:19;2.53;;;1.35;;
27039;SDS011;14589;51.578;7.306;2023-05-16T02:25:49;10.13;;;1.58;;
27039;SDS011;14589;51.578;7.306;2023-05-16T02:28:20;5.95;;;1.30;;
27039;SDS011;14589;51.578;7.306;2023-05-16T02:30:57;6.95;;;1.27;;
27039;SDS011;14589;51.578;7.306;2023-05-16T02:33:28;7.13;;;1.52;;
27039;SDS011;14589;51.578;7.306;2023-05-16T02:35:58;8.82;;;2.03;;
27039;SDS011;14589;51.578;7.306;2023-05-16T02:38:29;2.85;;;0.63;;
27039;SDS011;14589;51.578;7.306;2023-05-16T02:41:00;5.25;;;1.30;;
27039;SDS011;14589;51.578;7.306;2023-05-16T02:43:30;5.10;;;0.77;;
27039;SDS011;14589;51.578;7.306;2023-05-16T02:46:03;3.15;;;0.28;;
27039;SDS011;14589;51.578;7.306;2023-05-16T02:48:34;3.30;;;1.50;;
27039;SDS011;14589;51.578;7.306;2023-05-16T02:51:04;3.85;;;1.27;;
27039;SDS011;14589;51.578;7.306;2023-05-16T02:53:35;4.28;;;0.98;;
27039;SDS011;14589;51.578;7.306;2023-05-16T02:56:05;4.50;;;1.05;;
27039;SDS011;14589;51.578;7.306;2023-05-16T02:58:36;5.15;;;3.20;;
27039;SDS011;14589;51.578;7.306;2023-05-16T03:01:06;8.57;;;1.45;;
27039;SDS011;14589;51.578;7.306;2023-05-16T03:03:37;5.05;;;1.15;;
27039;SDS011;14589;51.578;7.306;2023-05-16T03:06:08;10.63;;;1.63;;
27039;SDS011;14589;51.578;7.306;2023-05-16T03:08:38;5.80;;;1.27;;
27039;SDS011;14589;51.578;7.306;2023-05-16T03:11:08;9.35;;;1.95;;
27039;SDS011;14589;51.578;7.306;2023-05-16T03:13:39;6.95;;;1.35;;
27039;SDS011;14589;51.578;7.306;2023-05-16T03:16:10;7.85;;;1.10;;
27039;SDS011;14589;51.578;7.306;2023-05-16T03:18:41;5.18;;;1.50;;
27039;SDS011;14589;51.578;7.306;2023-05-16T03:21:11;4.03;;;0.50;;
27039;SDS011;14589;51.578;7.306;2023-05-16T03:23:42;5.78;;;1.45;;
27039;SDS011;14589;51.578;7.306;2023-05-16T03:26:12;5.07;;;1.02;;
27039;SDS011;14589;51.578;7.306;2023-05-16T03:28:43;4.65;;;0.77;;
27039;SDS011;14589;51.578;7.306;2023-05-16T03:31:13;7.28;;;1.05;;
27039;SDS011;14589;51.578;7.306;2023-05-16T03:33:44;6.25;;;1.48;;
27039;SDS011;14589;51.578;7.306;2023-05-16T03:36:14;5.35;;;1.95;;
27039;SDS011;14589;51.578;7.306;2023-05-16T03:38:45;5.32;;;0.70;;
27039;SDS011;14589;51.578;7.306;2023-05-16T03:41:15;7.60;;;1.65;;
27039;SDS011;14589;51.578;7.306;2023-05-16T03:43:46;4.47;;;0.90;;
27039;SDS011;14589;51.578;7.306;2023-05-16T03:46:16;13.38;;;1.42;;
27039;SDS011;14589;51.578;7.306;2023-05-16T03:48:47;9.07;;;1.60;;
27039;SDS011;14589;51.578;7.306;2023-05-16T03:51:17;7.18;;;0.93;;
27039;SDS011;14589;51.578;7.306;2023-05-16T03:53:47;9.38;;;1.40;;
27039;SDS011;14589;51.578;7.306;2023-05-16T03:56:18;13.23;;;1.58;;
27039;SDS011;14589;51.578;7.306;2023-05-16T03:58:48;4.57;;;1.23;;
27039;SDS011;14589;51.578;7.306;2023-05-16T04:01:19;9.25;;;1.83;;
27039;SDS011;14589;51.578;7.306;2023-05-16T04:03:49;5.00;;;1.00;;
27039;SDS011;14589;51.578;7.306;2023-05-16T04:06:20;9.40;;;0.90;;
27039;SDS011;14589;51.578;7.306;2023-05-16T04:08:51;5.97;;;2.22;;
27039;SDS011;14589;51.578;7.306;2023-05-16T04:11:21;6.10;;;1.30;;
27039;SDS011;14589;51.578;7.306;2023-05-16T04:13:51;8.30;;;1.45;;
27039;SDS011;14589;51.578;7.306;2023-05-16T04:16:23;8.45;;;1.33;;
27039;SDS011;14589;51.578;7.306;2023-05-16T04:18:53;11.40;;;1.90;;
27039;SDS011;14589;51.578;7.306;2023-05-16T04:21:25;5.63;;;1.15;;
27039;SDS011;14589;51.578;7.306;2023-05-16T04:23:55;4.65;;;1.30;;
27039;SDS011;14589;51.578;7.306;2023-05-16T04:26:26;4.30;;;0.65;;
27039;SDS011;14589;51.578;7.306;2023-05-16T04:28:57;6.47;;;1.42;;
27039;SDS011;14589;51.578;7.306;2023-05-16T04:31:27;10.23;;;1.65;;
27039;SDS011;14589;51.578;7.306;2023-05-16T04:33:57;12.18;;;2.00;;
27039;SDS011;14589;51.578;7.306;2023-05-16T04:36:28;6.30;;;1.00;;
27039;SDS011;14589;51.578;7.306;2023-05-16T04:38:59;8.77;;;1.35;;
27039;SDS011;14589;51.578;7.306;2023-05-16T04:41:29;5.28;;;1.90;;
27039;SDS011;14589;51.578;7.306;2023-05-16T04:44:01;9.02;;;1.08;;
27039;SDS011;14589;51.578;7.306;2023-05-16T04:46:35;7.47;;;0.98;;
27039;SDS011;14589;51.578;7.306;2023-05-16T04:49:06;6.30;;;2.70;;
27039;SDS011;14589;51.578;7.306;2023-05-16T04:51:37;5.75;;;1.05;;
27039;SDS011;14589;51.578;7.306;2023-05-16T04:54:08;9.80;;;1.08;;
27039;SDS011;14589;51.578;7.306;2023-05-16T04:56:39;5.93;;;0.98;;
27039;SDS011;14589;51.578;7.306;2023-05-16T04:59:10;5.03;;;0.90;;
27039;SDS011;14589;51.578;7.306;2023-05-16T05:01:40;4.38;;;2.63;;
27039;SDS011;14589;51.578;7.306;2023-05-16T05:04:11;8.57;;;2.13;;
27039;SDS011;14589;51.578;7.306;2023-05-16T05:06:41;11.55;;;1.73;;
27039;SDS011;14589;51.578;7.306;2023-05-16T05:09:12;3.88;;;0.75;;
27039;SDS011;14589;51.578;7.306;2023-05-16T05:11:43;5.93;;;0.77;;
27039;SDS011;14589;51.578;7.306;2023-05-16T05:14:13;9.02;;;1.05;;
27039;SDS011;14589;51.578;7.306;2023-05-16T05:16:43;3.28;;;0.63;;
27039;SDS011;14589;51.578;7.306;2023-05-16T05:19:14;6.03;;;0.70;;
27039;SDS011;14589;51.578;7.306;2023-05-16T05:21:44;7.32;;;0.90;;
27039;SDS011;14589;51.578;7.306;2023-05-16T05:24:14;5.78;;;1.17;;
27039;SDS011;14589;51.578;7.306;2023-05-16T05:26:45;8.73;;;1.98;;
27039;SDS011;14589;51.578;7.306;2023-05-16T05:29:15;13.50;;;1.63;;
27039;SDS011;14589;51.578;7.306;2023-05-16T05:31:45;8.98;;;1.33;;
27039;SDS011;14589;51.578;7.306;2023-05-16T05:34:16;8.57;;;2.15;;
27039;SDS011;14589;51.578;7.306;2023-05-16T05:36:46;6.25;;;0.85;;
27039;SDS011;14589;51.578;7.306;2023-05-16T05:39:17;6.85;;;0.63;;
27039;SDS011;14589;51.578;7.306;2023-05-16T05:41:47;5.03;;;1.05;;
27039;SDS011;14589;51.578;7.306;2023-05-16T05:44:17;9.85;;;1.02;;
27039;SDS011;14589;51.578;7.306;2023-05-16T05:46:48;5.20;;;0.88;;
27039;SDS011;14589;51.578;7.306;2023-05-16T05:49:18;9.00;;;1.30;;
27039;SDS011;14589;51.578;7.306;2023-05-16T05:51:49;5.32;;;0.40;;
27039;SDS011;14589;51.578;7.306;2023-05-16T05:54:22;10.30;;;1.15;;
27039;SDS011;14589;51.578;7.306;2023-05-16T05:56:53;6.68;;;0.68;;
27039;SDS011;14589;51.578;7.306;2023-05-16T05:59:23;7.55;;;1.48;;
27039;SDS011;14589;51.578;7.306;2023-05-16T06:01:53;9.98;;;2.28;;
27039;SDS011;14589;51.578;7.306;2023-05-16T06:04:24;10.40;;;2.60;;
27039;SDS011;14589;51.578;7.306;2023-05-16T06:06:54;7.80;;;1.00;;
27039;SDS011;14589;51.578;7.306;2023-05-16T06:09:25;4.85;;;0.50;;
27039;SDS011;14589;51.578;7.306;2023-05-16T06:11:55;8.07;;;1.15;;
27039;SDS011;14589;51.578;7.306;2023-05-16T06:14:26;7.13;;;1.05;;
27039;SDS011;14589;51.578;7.306;2023-05-16T06:16:56;5.00;;;0.85;;
27039;SDS011;14589;51.578;7.306;2023-05-16T06:19:26;8.93;;;1.95;;
27039;SDS011;14589;51.578;7.306;2023-05-16T06:21:57;6.38;;;0.80;;
27039;SDS011;14589;51.578;7.306;2023-05-16T06:24:27;5.25;;;0.85;;
27039;SDS011;14589;51.578;7.306;2023-05-16T06:27:00;10.95;;;1.50;;
27039;SDS011;14589;51.578;7.306;2023-05-16T06:29:31;7.63;;;0.98;;
27039;SDS011;14589;51.578;7.306;2023-05-16T06:32:01;5.97;;;1.42;;
27039;SDS011;14589;51.578;7.306;2023-05-16T06:34:32;9.43;;;1.08;;
27039;SDS011;14589;51.578;7.306;2023-05-16T06:37:02;4.50;;;1.10;;
27039;SDS011;14589;51.578;7.306;2023-05-16T06:39:32;6.07;;;0.80;;
27039;SDS011;14589;51.578;7.306;2023-05-16T06:42:03;9.18;;;1.13;;
27039;SDS011;14589;51.578;7.306;2023-05-16T06:44:35;6.47;;;1.13;;
27039;SDS011;14589;51.578;7.306;2023-05-16T06:47:06;6.60;;;0.77;;
27039;SDS011;14589;51.578;7.306;2023-05-16T06:49:36;6.80;;;1.05;;
27039;SDS011;14589;51.578;7.306;2023-05-16T06:52:06;3.80;;;0.77;;
27039;SDS011;14589;51.578;7.306;2023-05-16T06:54:37;7.07;;;1.58;;
27039;SDS011;14589;51.578;7.306;2023-05-16T06:57:07;11.32;;;0.98;;
27039;SDS011;14589;51.578;7.306;2023-05-16T06:59:38;5.53;;;0.85;;
27039;SDS011;14589;51.578;7.306;2023-05-16T07:02:08;4.82;;;1.23;;
27039;SDS011;14589;51.578;7.306;2023-05-16T07:04:39;7.30;;;1.10;;
27039;SDS011;14589;51.578;7.306;2023-05-16T07:07:09;6.22;;;0.52;;
27039;SDS011;14589;51.578;7.306;2023-05-16T07:09:39;7.28;;;0.60;;
27039;SDS011;14589;51.578;7.306;2023-05-16T07:12:10;8.95;;;1.65;;
27039;SDS011;14589;51.578;7.306;2023-05-16T07:14:41;4.72;;;0.73;;
27039;SDS011;14589;51.578;7.306;2023-05-16T07:17:13;4.38;;;0.55;;
27039;SDS011;14589;51.578;7.306;2023-05-16T07:19:44;3.13;;;0.40;;
27039;SDS011;14589;51.578;7.306;2023-05-16T07:22:15;9.48;;;0.63;;
27039;SDS011;14589;51.578;7.306;2023-05-16T07:24:45;6.15;;;0.82;;
27039;SDS011;14589;51.578;7.306;2023-05-16T07:27:15;8.20;;;0.70;;
27039;SDS011;14589;51.578;7.306;2023-05-16T07:29:46;6.80;;;1.25;;
27039;SDS011;14589;51.578;7.306;2023-05-16T07:32:16;4.50;;;1.08;;
27039;SDS011;14589;51.578;7.306;2023-05-16T07:34:47;6.05;;;0.50;;
27039;SDS011;14589;51.578;7.306;2023-05-16T07:37:20;10.90;;;0.47;;
27039;SDS011;14589;51.578;7.306;2023-05-16T07:39:51;5.80;;;1.38;;
27039;SDS011;14589;51.578;7.306;2023-05-16T07:42:21;6.55;;;0.63;;
27039;SDS011;14589;51.578;7.306;2023-05-16T07:44:51;6.75;;;0.93;;
27039;SDS011;14589;51.578;7.306;2023-05-16T07:47:22;6.32;;;0.95;;
27039;SDS011;14589;51.578;7.306;2023-05-16T07:49:52;2.72;;;0.77;;
27039;SDS011;14589;51.578;7.306;2023-05-16T07:52:26;3.10;;;0.30;;
27039;SDS011;14589;51.578;7.306;2023-05-16T07:54:56;2.78;;;0.22;;
27039;SDS011;14589;51.578;7.306;2023-05-16T07:57:27;5.30;;;1.08;;
27039;SDS011;14589;51.578;7.306;2023-05-16T07:59:58;4.75;;;1.13;;
27039;SDS011;14589;51.578;7.306;2023-05-16T08:02:28;3.50;;;0.43;;
27039;SDS011;14589;51.578;7.306;2023-05-16T08:04:59;5.72;;;0.68;;
27039;SDS011;14589;51.578;7.306;2023-05-16T08:07:30;3.90;;;0.70;;
27039;SDS011;14589;51.578;7.306;2023-05-16T08:10:00;5.97;;;0.82;;
27039;SDS011;14589;51.578;7.306;2023-05-16T08:12:30;3.63;;;0.20;;
27039;SDS011;14589;51.578;7.306;2023-05-16T08:15:01;6.10;;;1.23;;
27039;SDS011;14589;51.578;7.306;2023-05-16T08:17:32;4.38;;;0.22;;
27039;SDS011;14589;51.578;7.306;2023-05-16T08:20:03;4.45;;;0.35;;
27039;SDS011;14589;51.578;7.306;2023-05-16T08:22:34;6.82;;;0.38;;
27039;SDS011;14589;51.578;7.306;2023-05-16T08:25:05;3.45;;;0.55;;
27039;SDS011;14589;51.578;7.306;2023-05-16T08:27:36;4.05;;;0.40;;
27039;SDS011;14589;51.578;7.306;2023-05-16T08:30:09;1.73;;;0.40;;
27039;SDS011;14589;51.578;7.306;2023-05-16T08:32:41;3.38;;;0.30;;
27039;SDS011;14589;51.578;7.306;2023-05-16T08:35:11;4.00;;;0.32;;
27039;SDS011;14589;51.578;7.306;2023-05-16T08:37:42;3.15;;;0.85;;
27039;SDS011;14589;51.578;7.306;2023-05-16T08:40:12;3.20;;;0.55;;
27039;SDS011;14589;51.578;7.306;2023-05-16T08:45:14;3.70;;;0.80;;
27039;SDS011;14589;51.578;7.306;2023-05-16T08:47:45;5.60;;;0.65;;
27039;SDS011;14589;51.578;7.306;2023-05-16T08:50:24;5.93;;;0.20;;
27039;SDS011;14589;51.578;7.306;2023-05-16T08:52:55;5.63;;;0.32;;
27039;SDS011;14589;51.578;7.306;2023-05-16T08:55:26;6.65;;;1.80;;
27039;SDS011;14589;51.578;7.306;2023-05-16T08:57:56;3.70;;;0.88;;
27039;SDS011;14589;51.578;7.306;2023-05-16T09:00:27;4.63;;;0.52;;
27039;SDS011;14589;51.578;7.306;2023-05-16T09:02:58;5.43;;;1.95;;
27039;SDS011;14589;51.578;7.306;2023-05-16T09:05:29;2.65;;;0.43;;
27039;SDS011;14589;51.578;7.306;2023-05-16T09:08:00;1.75;;;0.60;;
27039;SDS011;14589;51.578;7.306;2023-05-16T09:10:30;4.97;;;0.80;;
27039;SDS011;14589;51.578;7.306;2023-05-16T09:13:01;1.67;;;0.35;;
27039;SDS011;14589;51.578;7.306;2023-05-16T09:15:32;3.80;;;0.10;;
27039;SDS011;14589;51.578;7.306;2023-05-16T09:18:03;2.33;;;0.10;;
27039;SDS011;14589;51.578;7.306;2023-05-16T09:20:34;3.35;;;0.30;;
27039;SDS011;14589;51.578;7.306;2023-05-16T09:23:04;2.55;;;0.20;;
27039;SDS011;14589;51.578;7.306;2023-05-16T09:25:35;7.00;;;0.40;;
27039;SDS011;14589;51.578;7.306;2023-05-16T09:28:05;2.58;;;0.40;;
27039;SDS011;14589;51.578;7.306;2023-05-16T09:30:40;0.88;;;0.75;;
27039;SDS011;14589;51.578;7.306;2023-05-16T09:33:15;2.60;;;0.95;;
27039;SDS011;14589;51.578;7.306;2023-05-16T09:35:46;1.45;;;0.25;;
27039;SDS011;14589;51.578;7.306;2023-05-16T09:38:24;2.08;;;0.73;;
27039;SDS011;14589;51.578;7.306;2023-05-16T09:40:56;3.17;;;0.15;;
27039;SDS011;14589;51.578;7.306;2023-05-16T09:43:27;2.75;;;0.40;;
27039;SDS011;14589;51.578;7.306;2023-05-16T09:45:58;3.72;;;0.20;;
27039;SDS011;14589;51.578;7.306;2023-05-16T09:48:29;3.53;;;1.00;;
27039;SDS011;14589;51.578;7.306;2023-05-16T09:53:34;2.45;;;0.95;;
27039;SDS011;14589;51.578;7.306;2023-05-16T09:56:11;1.63;;;1.05;;
27039;SDS011;14589;51.578;7.306;2023-05-16T09:58:43;2.65;;;0.75;;
27039;SDS011;14589;51.578;7.306;2023-05-16T10:01:14;4.20;;;0.57;;
27039;SDS011;14589;51.578;7.306;2023-05-16T10:03:44;2.22;;;0.40;;
27039;SDS011;14589;51.578;7.306;2023-05-16T10:06:15;5.35;;;0.90;;
27039;SDS011;14589;51.578;7.306;2023-05-16T10:08:46;5.00;;;0.30;;
27039;SDS011;14589;51.578;7.306;2023-05-16T10:11:18;2.88;;;0.65;;
27039;SDS011;14589;51.578;7.306;2023-05-16T10:13:50;1.77;;;0.32;;
27039;SDS011;14589;51.578;7.306;2023-05-16T10:16:22;4.22;;;0.60;;
27039;SDS011;14589;51.578;7.306;2023-05-16T10:18:53;5.13;;;0.60;;
27039;SDS011;14589;51.578;7.306;2023-05-16T10:21:25;2.95;;;0.95;;
27039;SDS011;14589;51.578;7.306;2023-05-16T10:23:57;8.40;;;0.52;;
27039;SDS011;14589;51.578;7.306;2023-05-16T10:26:32;3.00;;;0.10;;
27039;SDS011;14589;51.578;7.306;2023-05-16T10:29:03;1.45;;;1.27;;
27039;SDS011;14589;51.578;7.306;2023-05-16T10:31:34;3.35;;;0.00;;
27039;SDS011;14589;51.578;7.306;2023-05-16T10:34:06;3.15;;;0.28;;
27039;SDS011;14589;51.578;7.306;2023-05-16T10:36:37;3.65;;;0.40;;
27039;SDS011;14589;51.578;7.306;2023-05-16T10:39:08;1.83;;;0.38;;
27039;SDS011;14589;51.578;7.306;2023-05-16T10:41:40;2.03;;;0.73;;
27039;SDS011;14589;51.578;7.306;2023-05-16T10:44:12;4.05;;;0.50;;
27039;SDS011;14589;51.578;7.306;2023-05-16T10:46:47;4.45;;;1.05;;
27039;SDS011;14589;51.578;7.306;2023-05-16T10:49:21;5.10;;;0.52;;
27039;SDS011;14589;51.578;7.306;2023-05-16T10:52:02;3.15;;;0.25;;
27039;SDS011;14589;51.578;7.306;2023-05-16T10:54:43;2.15;;;0.20;;
27039;SDS011;14589;51.578;7.306;2023-05-16T10:59:52;1.00;;;0.60;;
27039;SDS011;14589;51.578;7.306;2023-05-16T11:02:29;3.08;;;1.38;;
27039;SDS011;14589;51.578;7.306;2023-05-16T11:05:03;3.00;;;0.30;;
27039;SDS011;14589;51.578;7.306;2023-05-16T11:07:35;2.17;;;0.60;;
27039;SDS011;14589;51.578;7.306;2023-05-16T11:10:07;2.10;;;0.22;;
27039;SDS011;14589;51.578;7.306;2023-05-16T11:12:47;1.92;;;0.55;;
27039;SDS011;14589;51.578;7.306;2023-05-16T11:15:25;1.17;;;0.30;;
27039;SDS011;14589;51.578;7.306;2023-05-16T11:18:07;4.00;;;0.45;;
27039;SDS011;14589;51.578;7.306;2023-05-16T11:20:38;4.10;;;1.75;;
27039;SDS011;14589;51.578;7.306;2023-05-16T11:23:16;3.70;;;0.85;;
27039;SDS011;14589;51.578;7.306;2023-05-16T11:25:55;3.65;;;0.45;;
27039;SDS011;14589;51.578;7.306;2023-05-16T11:28:27;2.67;;;0.43;;
27039;SDS011;14589;51.578;7.306;2023-05-16T11:30:58;2.42;;;0.20;;
27039;SDS011;14589;51.578;7.306;2023-05-16T11:33:29;3.30;;;0.60;;
27039;SDS011;14589;51.578;7.306;2023-05-16T11:36:03;3.05;;;0.47;;
27039;SDS011;14589;51.578;7.306;2023-05-16T11:38:35;3.83;;;1.10;;
27039;SDS011;14589;51.578;7.306;2023-05-16T11:41:06;2.85;;;0.70;;
27039;SDS011;14589;51.578;7.306;2023-05-16T11:43:39;4.47;;;0.60;;
27039;SDS011;14589;51.578;7.306;2023-05-16T11:46:14;5.88;;;0.50;;
27039;SDS011;14589;51.578;7.306;2023-05-16T11:48:45;4.28;;;0.45;;
27039;SDS011;14589;51.578;7.306;2023-05-16T11:51:19;5.00;;;0.55;;
27039;SDS011;14589;51.578;7.306;2023-05-16T11:53:49;5.30;;;0.50;;
27039;SDS011;14589;51.578;7.306;2023-05-16T11:56:20;9.68;;;1.23;;
27039;SDS011;14589;51.578;7.306;2023-05-16T12:01:22;1.73;;;0.55;;
27039;SDS011;14589;51.578;7.306;2023-05-16T12:03:56;4.85;;;1.15;;
27039;SDS011;14589;51.578;7.306;2023-05-16T12:06:26;2.38;;;0.93;;
27039;SDS011;14589;51.578;7.306;2023-05-16T12:08:58;4.85;;;0.47;;
27039;SDS011;14589;51.578;7.306;2023-05-16T12:11:31;4.15;;;0.38;;
27039;SDS011;14589;51.578;7.306;2023-05-16T12:14:01;3.03;;;0.65;;
27039;SDS011;14589;51.578;7.306;2023-05-16T12:16:33;3.63;;;0.88;;
27039;SDS011;14589;51.578;7.306;2023-05-16T12:19:05;3.83;;;0.25;;
27039;SDS011;14589;51.578;7.306;2023-05-16T12:21:37;3.13;;;1.02;;
27039;SDS011;14589;51.578;7.306;2023-05-16T12:24:08;4.13;;;0.38;;
27039;SDS011;14589;51.578;7.306;2023-05-16T12:26:40;1.77;;;0.73;;
27039;SDS011;14589;51.578;7.306;2023-05-16T12:29:12;1.20;;;0.32;;
27039;SDS011;14589;51.578;7.306;2023-05-16T12:31:42;5.85;;;0.50;;
27039;SDS011;14589;51.578;7.306;2023-05-16T12:34:16;3.53;;;0.28;;
27039;SDS011;14589;51.578;7.306;2023-05-16T12:36:51;0.85;;;0.30;;
27039;SDS011;14589;51.578;7.306;2023-05-16T12:39:22;4.22;;;0.75;;
27039;SDS011;14589;51.578;7.306;2023-05-16T12:41:53;5.95;;;1.35;;
27039;SDS011;14589;51.578;7.306;2023-05-16T12:44:23;1.55;;;0.38;;
27039;SDS011;14589;51.578;7.306;2023-05-16T12:46:59;2.88;;;0.30;;
27039;SDS011;14589;51.578;7.306;2023-05-16T12:49:29;0.50;;;0.32;;
27039;SDS011;14589;51.578;7.306;2023-05-16T12:52:02;1.30;;;0.25;;
27039;SDS011;14589;51.578;7.306;2023-05-16T12:54:34;3.13;;;0.50;;
27039;SDS011;14589;51.578;7.306;2023-05-16T12:57:05;1.63;;;0.55;;
27039;SDS011;14589;51.578;7.306;2023-05-16T12:59:36;2.83;;;0.60;;
27039;SDS011;14589;51.578;7.306;2023-05-16T13:02:06;0.85;;;0.03;;
27039;SDS011;14589;51.578;7.306;2023-05-16T13:04:36;2.78;;;0.82;;
27039;SDS011;14589;51.578;7.306;2023-05-16T13:07:07;3.53;;;0.88;;
27039;SDS011;14589;51.578;7.306;2023-05-16T13:09:38;2.92;;;0.45;;
27039;SDS011;14589;51.578;7.306;2023-05-16T13:12:08;2.35;;;0.43;;
27039;SDS011;14589;51.578;7.306;2023-05-16T13:14:38;3.85;;;0.45;;
27039;SDS011;14589;51.578;7.306;2023-05-16T13:17:09;2.83;;;0.73;;
27039;SDS011;14589;51.578;7.306;2023-05-16T13:19:40;1.90;;;0.55;;
27039;SDS011;14589;51.578;7.306;2023-05-16T13:22:11;1.65;;;0.22;;
27039;SDS011;14589;51.578;7.306;2023-05-16T13:24:41;0.88;;;0.40;;
27039;SDS011;14589;51.578;7.306;2023-05-16T13:27:14;1.92;;;0.35;;
27039;SDS011;14589;51.578;7.306;2023-05-16T13:29:46;1.05;;;0.20;;
27039;SDS011;14589;51.578;7.306;2023-05-16T13:32:17;2.80;;;0.52;;
27039;SDS011;14589;51.578;7.306;2023-05-16T13:34:48;6.18;;;0.93;;
27039;SDS011;14589;51.578;7.306;2023-05-16T13:37:18;3.75;;;0.20;;
27039;SDS011;14589;51.578;7.306;2023-05-16T13:39:49;3.67;;;0.28;;
27039;SDS011;14589;51.578;7.306;2023-05-16T13:42:20;2.08;;;0.80;;
27039;SDS011;14589;51.578;7.306;2023-05-16T13:44:50;1.67;;;0.38;;
27039;SDS011;14589;51.578;7.306;2023-05-16T13:47:21;1.58;;;0.30;;
27039;SDS011;14589;51.578;7.306;2023-05-16T13:49:51;3.35;;;0.75;;
27039;SDS011;14589;51.578;7.306;2023-05-16T13:52:24;1.63;;;0.73;;
27039;SDS011;14589;51.578;7.306;2023-05-16T13:54:55;1.60;;;0.32;;
27039;SDS011;14589;51.578;7.306;2023-05-16T13:57:26;1.17;;;0.30;;
27039;SDS011;14589;51.578;7.306;2023-05-16T13:59:56;2.72;;;0.65;;
27039;SDS011;14589;51.578;7.306;2023-05-16T14:02:27;1.33;;;0.30;;
27039;SDS011;14589;51.578;7.306;2023-05-16T14:05:00;2.28;;;1.35;;
27039;SDS011;14589;51.578;7.306;2023-05-16T14:07:30;2.78;;;1.00;;
27039;SDS011;14589;51.578;7.306;2023-05-16T14:10:01;3.80;;;0.43;;
27039;SDS011;14589;51.578;7.306;2023-05-16T14:12:31;1.38;;;0.60;;
27039;SDS011;14589;51.578;7.306;2023-05-16T14:15:01;1.92;;;0.88;;
27039;SDS011;14589;51.578;7.306;2023-05-16T14:17:32;4.78;;;0.30;;
27039;SDS011;14589;51.578;7.306;2023-05-16T14:20:02;2.95;;;0.20;;
27039;SDS011;14589;51.578;7.306;2023-05-16T14:22:38;6.07;;;0.63;;
27039;SDS011;14589;51.578;7.306;2023-05-16T14:25:08;1.92;;;0.57;;
27039;SDS011;14589;51.578;7.306;2023-05-16T14:27:39;5.75;;;0.52;;
27039;SDS011;14589;51.578;7.306;2023-05-16T14:30:09;2.00;;;0.70;;
27039;SDS011;14589;51.578;7.306;2023-05-16T14:32:40;3.58;;;1.65;;
27039;SDS011;14589;51.578;7.306;2023-05-16T14:35:11;3.28;;;0.40;;
27039;SDS011;14589;51.578;7.306;2023-05-16T14:37:41;4.22;;;0.47;;
27039;SDS011;14589;51.578;7.306;2023-05-16T14:40:14;4.32;;;0.80;;
27039;SDS011;14589;51.578;7.306;2023-05-16T14:42:45;2.10;;;0.43;;
27039;SDS011;14589;51.578;7.306;2023-05-16T14:45:15;2.08;;;0.70;;
27039;SDS011;14589;51.578;7.306;2023-05-16T14:47:46;5.40;;;0.93;;
27039;SDS011;14589;51.578;7.306;2023-05-16T14:50:17;2.35;;;0.38;;
27039;SDS011;14589;51.578;7.306;2023-05-16T14:52:47;7.22;;;0.70;;
27039;SDS011;14589;51.578;7.306;2023-05-16T14:55:19;0.80;;;0.35;;
27039;SDS011;14589;51.578;7.306;2023-05-16T14:57:49;3.33;;;0.40;;
27039;SDS011;14589;51.578;7.306;2023-05-16T15:00:23;2.13;;;0.60;;
27039;SDS011;14589;51.578;7.306;2023-05-16T15:02:54;3.70;;;0.20;;
27039;SDS011;14589;51.578;7.306;2023-05-16T15:05:25;1.98;;;0.63;;
27039;SDS011;14589;51.578;7.306;2023-05-16T15:07:55;4.75;;;0.68;;
27039;SDS011;14589;51.578;7.306;2023-05-16T15:10:26;2.75;;;0.70;;
27039;SDS011;14589;51.578;7.306;2023-05-16T15:12:56;5.43;;;0.52;;
27039;SDS011;14589;51.578;7.306;2023-05-16T15:15:26;5.70;;;0.28;;
27039;SDS011;14589;51.578;7.306;2023-05-16T15:17:57;3.85;;;1.00;;
27039;SDS011;14589;51.578;7.306;2023-05-16T15:20:28;4.13;;;0.68;;
27039;SDS011;14589;51.578;7.306;2023-05-16T15:22:58;3.80;;;0.28;;
27039;SDS011;14589;51.578;7.306;2023-05-16T15:25:29;2.33;;;0.45;;
27039;SDS011;14589;51.578;7.306;2023-05-16T15:28:00;1.73;;;0.00;;
27039;SDS011;14589;51.578;7.306;2023-05-16T15:30:30;3.63;;;0.22;;
27039;SDS011;14589;51.578;7.306;2023-05-16T15:33:00;9.63;;;1.98;;
27039;SDS011;14589;51.578;7.306;2023-05-16T15:35:31;4.90;;;1.48;;
27039;SDS011;14589;51.578;7.306;2023-05-16T15:38:01;2.50;;;0.35;;
27039;SDS011;14589;51.578;7.306;2023-05-16T15:40:31;0.90;;;0.52;;
27039;SDS011;14589;51.578;7.306;2023-05-16T15:43:02;1.65;;;0.25;;